This is the latest recevied weather packets stored in our database for station/object HS0TK-1. If no packets are shown the sender has not sent any weather packets the latest 10 day(s).
| Time | Temp. | Humidity | Pressure | Rain* | Wind** | Luminosity | Snow |
|---|---|---|---|---|---|---|---|
| 1777522929 | 30° C | 39% | 1011 hPa | - | - | 0 W/m² | - |
| 1777522867 | 30° C | 40% | 1011 hPa | - | - | 0 W/m² | - |
| 1777521939 | 32.22° C | 38% | 1011 hPa | - | - | 0 W/m² | - |
| 1777520986 | 32.22° C | 39% | 1011 hPa | - | - | 0 W/m² | - |
| 1777520057 | 32.22° C | 40% | 1011 hPa | - | - | 0 W/m² | - |
| 1777519123 | 32.78° C | 43% | 1012 hPa | - | - | 0 W/m² | - |
| 1777518193 | 33.89° C | 50% | 1012 hPa | - | - | 0 W/m² | - |
| 1777517253 | 34.44° C | 50% | 1012 hPa | - | - | 0 W/m² | - |
| 1777516320 | 33.89° C | 51% | 1012 hPa | - | - | 0 W/m² | - |
| 1777515387 | 33.89° C | 52% | 1012 hPa | - | - | 0 W/m² | - |
| 1777514449 | 33.89° C | 52% | 1012 hPa | - | - | 0 W/m² | - |
| 1777513519 | 33.89° C | 54% | 1012 hPa | - | - | 0 W/m² | - |
| 1777512585 | 33.33° C | 55% | 1012 hPa | - | - | 0 W/m² | - |
| 1777511643 | 33.89° C | 57% | 1012 hPa | - | - | 0 W/m² | - |
| 1777510710 | 33.33° C | 59% | 1011 hPa | - | - | 0 W/m² | - |
| 1777509775 | 33.33° C | 60% | 1011 hPa | - | - | 0 W/m² | - |
| 1777508831 | 32.78° C | 61% | 1011 hPa | - | - | 0 W/m² | - |
| 1777507901 | 32.22° C | 62% | 1011 hPa | - | - | 0 W/m² | - |
| 1777468138 | 36.11° C | 48% | 1007 hPa | - | - | 0 W/m² | - |
| 1777467202 | 36.67° C | 45% | 1007 hPa | - | - | 0 W/m² | - |
| 1777466265 | 36.67° C | 46% | 1007 hPa | - | - | 0 W/m² | - |
| 1777465336 | 37.22° C | 44% | 1006 hPa | - | - | 0 W/m² | - |
| 1777465273 | 37.22° C | 44% | 1006 hPa | - | - | 0 W/m² | - |
| 1777464341 | 37.22° C | 43% | 1006 hPa | - | - | 0 W/m² | - |
| 1777463405 | 37.78° C | 41% | 1006 hPa | - | - | 0 W/m² | - |
* Rain since midnight (hover to see other rain measurements)
** Current wind speed in m/s (hover to see current wind gust speed)